Eva-320 — ES2338 — position and weather

sailwx.info

Track history (hours):
 
Tides and Currents Weather Stations Pressure Air Temp Water Temp Dewpoint Dewpoint Depression Visibility Wind Speed Wind Dir Waves Ship Positions

Eva-320

Last reported at 2017-Jul-21 06:30 UTC. Time now 2017-Jul-21 06:37 UTC.
Position N 59°06' E 023°24'.

Length 20 m; draft 1 m.

Type: Other ship. MMSI: 276197000.

Date/timePositionNaut miles runAvg speedWind from/ knotsBaromVisibWave heightAir tempDewpointWater temp
2017-Jul-21 06:30N 59°06' E 023°24'1 2.7
2017-Jul-21 06:00N 59°04' E 023°24'6 9.8
2017-Jul-21 05:25N 58°59' E 023°26'3 3.6
2017-Jul-21 04:39N 58°58' E 023°31'0 0.0
2017-Jul-21 04:30N 58°58' E 023°31'0 0.0
2017-Jul-20 17:43N 58°58' E 023°31'0 0.0
2017-Jul-20 17:27N 58°58' E 023°31'0 0.0
2017-Jul-20 17:00N 58°58' E 023°31'0 0.0
2017-Jul-20 16:30N 58°58' E 023°31'4 2.3
2017-Jul-20 14:35N 58°55' E 023°24'  
2017-Jul-18 08:23N 58°57' E 023°25'9 8.6
2017-Jul-18 07:23N 59°06' E 023°22'2 4.3
2017-Jul-18 06:59N 59°07' E 023°24'1 1.9
2017-Jul-18 06:29N 59°06' E 023°23'9 0.9
2017-Jul-17 19:36N 58°58' E 023°31'0 0.0
2017-Jul-17 19:30N 58°58' E 023°31'0 0.0
2017-Jul-17 18:57N 58°58' E 023°31'0 0.0
2017-Jul-16 21:14N 58°58' E 023°31'0 0.0
2017-Jul-16 19:03N 58°58' E 023°31'0 0.0
2017-Jul-16 18:51N 58°58' E 023°31'0 0.0
2017-Jul-16 18:27N 58°58' E 023°31'0 0.0
2017-Jul-16 17:45N 58°58' E 023°31'0 0.0
2017-Jul-16 17:27N 58°58' E 023°31'0 0.0
2017-Jul-16 17:00N 58°58' E 023°31'0 0.0
2017-Jul-16 16:30N 58°58' E 023°31'0 0.0
2017-Jul-16 15:52N 58°58' E 023°31'0 0.0
2017-Jul-16 15:28N 58°58' E 023°31'0 0.0
2017-Jul-16 15:00N 58°58' E 023°31'0 0.0
2017-Jul-16 13:40N 58°58' E 023°31'0 0.0
2017-Jul-16 11:58N 58°58' E 023°31'0 0.0
2017-Jul-16 11:29N 58°58' E 023°31'0 0.0
2017-Jul-16 10:53N 58°58' E 023°31'0 0.0
2017-Jul-16 10:26N 58°58' E 023°31'0 0.0
2017-Jul-16 09:27N 58°58' E 023°31'0 0.0
2017-Jul-16 08:56N 58°58' E 023°31'0 0.0
2017-Jul-16 08:08N 58°58' E 023°31'0 0.0
2017-Jul-16 07:12N 58°58' E 023°31'0 0.0
2017-Jul-16 07:00N 58°58' E 023°31'0 0.0
2017-Jul-16 06:28N 58°58' E 023°31'0 0.0
2017-Jul-16 05:55N 58°58' E 023°31'0 0.0
2017-Jul-16 05:25N 58°58' E 023°31'0 0.0
2017-Jul-16 04:55N 58°58' E 023°31'0 0.0
2017-Jul-16 03:04N 58°58' E 023°31'0 0.0
2017-Jul-15 23:56N 58°58' E 023°31'0 0.0
2017-Jul-15 23:20N 58°58' E 023°31'0 0.0
2017-Jul-15 21:54N 58°58' E 023°31'0 0.0
2017-Jul-15 21:22N 58°58' E 023°31'0 0.0
2017-Jul-15 21:00N 58°58' E 023°31'0 0.0
2017-Jul-15 20:22N 58°58' E 023°31'0 0.0
2017-Jul-15 19:38N 58°58' E 023°31'0 0.0
2017-Jul-15 19:27N 58°58' E 023°31'0 0.0
2017-Jul-15 18:56N 58°58' E 023°31'0 0.0
2017-Jul-15 18:21N 58°58' E 023°31'0 0.0
2017-Jul-15 18:00N 58°58' E 023°31'0 0.0
2017-Jul-15 17:30N 58°58' E 023°31'0 0.0
2017-Jul-15 17:00N 58°58' E 023°31'0 0.0
2017-Jul-15 16:27N 58°58' E 023°31'0 0.0
2017-Jul-15 16:00N 58°58' E 023°31'0 0.0
2017-Jul-15 15:27N 58°58' E 023°31'0 0.0
2017-Jul-15 15:00N 58°58' E 023°31'0 0.0
2017-Jul-15 14:00N 58°58' E 023°31'0 0.0
2017-Jul-15 13:24N 58°58' E 023°31'0 0.0
2017-Jul-15 13:00N 58°58' E 023°31'0 0.0
2017-Jul-15 12:24N 58°58' E 023°31'0 0.0
2017-Jul-15 11:57N 58°58' E 023°31'0 0.0
2017-Jul-15 11:30N 58°58' E 023°31'0 0.0
2017-Jul-15 05:15N 58°58' E 023°31'0 0.0
2017-Jul-15 04:20N 58°58' E 023°31'0 0.0
2017-Jul-15 03:49N 58°58' E 023°31'0 0.0
2017-Jul-15 03:26N 58°58' E 023°31'0 0.0
2017-Jul-15 02:59N 58°58' E 023°31'0 0.0
2017-Jul-15 00:08N 58°58' E 023°31'0 0.0
2017-Jul-14 23:41N 58°58' E 023°31'0 0.0
2017-Jul-14 19:20N 58°58' E 023°31'0 0.0
2017-Jul-14 18:53N 58°58' E 023°31'0 0.0
2017-Jul-14 18:30N 58°58' E 023°31'0 0.0
2017-Jul-14 18:00N 58°58' E 023°31'0 0.0
2017-Jul-14 17:30N 58°58' E 023°31'0 0.0
2017-Jul-14 16:57N 58°58' E 023°31'0 0.0
2017-Jul-14 16:30N 58°58' E 023°31'0 0.0
2017-Jul-14 15:58N 58°58' E 023°31'8 0.3
2017-Jul-13 09:39N 59°05' E 023°24'1 3.0
2017-Jul-13 09:22N 59°06' E 023°25'1 1.5
2017-Jul-13 09:00N 59°07' E 023°25'0 0.3
2017-Jul-13 08:30N 59°07' E 023°25'0 0.6
2017-Jul-13 08:00N 59°06' E 023°25'0 0.6
2017-Jul-13 07:26N 59°06' E 023°25'1 2.0
2017-Jul-13 07:01N 59°05' E 023°24'2 3.8
2017-Jul-13 06:29N 59°07' E 023°25'3 4.9
2017-Jul-13 05:49N 59°04' E 023°24'7 3.1
2017-Jul-13 03:26N 58°58' E 023°31'0 0.0
2017-Jul-12 09:57N 58°58' E 023°31'0 0.0
2017-Jul-12 09:12N 58°58' E 023°31'0 0.0
2017-Jul-12 08:55N 58°58' E 023°31'3 6.1
2017-Jul-12 08:31N 58°58' E 023°26'4 7.6
2017-Jul-12 08:00N 59°02' E 023°24'0 0.2
2017-Jul-12 07:29N 59°02' E 023°24'0 0.8
2017-Jul-12 07:01N 59°02' E 023°24'0 0.2
2017-Jul-12 06:19N 59°02' E 023°24'2 7.8
2017-Jul-12 06:00N 59°05' E 023°24'2 0.1
2017-Jul-11 11:10N 59°07' E 023°24'0 1.6
2017-Jul-11 10:54N 59°06' E 023°24'1 0.8
2017-Jul-11 09:29N 59°07' E 023°25'0 0.3
2017-Jul-11 08:59N 59°07' E 023°24'0 0.8
2017-Jul-11 08:30N 59°07' E 023°24'0 0.1
2017-Jul-11 08:00N 59°07' E 023°24'1 2.6
2017-Jul-11 07:30N 59°05' E 023°23'1 2.5
2017-Jul-11 07:00N 59°07' E 023°24'3 5.9
2017-Jul-11 06:30N 59°04' E 023°24'  
Track history (hours):
 
Tides and Currents Weather Stations Pressure Air Temp Water Temp Dewpoint Dewpoint Depression Visibility Wind Speed Wind Dir Waves Ship Positions

Eva-320

Last reported at 2017-Jul-21 06:30 UTC. Time now 2017-Jul-21 06:37 UTC.
Position N 59°06' E 023°24'.

Length 20 m; draft 1 m.

Type: Other ship. MMSI: 276197000.

Date/timePositionNaut miles runAvg speedWind from/ knotsBaromVisibWave heightAir tempDewpointWater temp
2017-Jul-21 06:30N 59°06' E 023°24'1 2.7
2017-Jul-21 06:00N 59°04' E 023°24'6 9.8
2017-Jul-21 05:25N 58°59' E 023°26'3 3.6
2017-Jul-21 04:39N 58°58' E 023°31'0 0.0
2017-Jul-21 04:30N 58°58' E 023°31'0 0.0
2017-Jul-20 17:43N 58°58' E 023°31'0 0.0
2017-Jul-20 17:27N 58°58' E 023°31'0 0.0
2017-Jul-20 17:00N 58°58' E 023°31'0 0.0
2017-Jul-20 16:30N 58°58' E 023°31'4 2.3
2017-Jul-20 14:35N 58°55' E 023°24'  
2017-Jul-18 08:23N 58°57' E 023°25'9 8.6
2017-Jul-18 07:23N 59°06' E 023°22'2 4.3
2017-Jul-18 06:59N 59°07' E 023°24'1 1.9
2017-Jul-18 06:29N 59°06' E 023°23'9 0.9
2017-Jul-17 19:36N 58°58' E 023°31'0 0.0
2017-Jul-17 19:30N 58°58' E 023°31'0 0.0
2017-Jul-17 18:57N 58°58' E 023°31'0 0.0
2017-Jul-16 21:14N 58°58' E 023°31'0 0.0
2017-Jul-16 19:03N 58°58' E 023°31'0 0.0
2017-Jul-16 18:51N 58°58' E 023°31'0 0.0
2017-Jul-16 18:27N 58°58' E 023°31'0 0.0
2017-Jul-16 17:45N 58°58' E 023°31'0 0.0
2017-Jul-16 17:27N 58°58' E 023°31'0 0.0
2017-Jul-16 17:00N 58°58' E 023°31'0 0.0
2017-Jul-16 16:30N 58°58' E 023°31'0 0.0
2017-Jul-16 15:52N 58°58' E 023°31'0 0.0
2017-Jul-16 15:28N 58°58' E 023°31'0 0.0
2017-Jul-16 15:00N 58°58' E 023°31'0 0.0
2017-Jul-16 13:40N 58°58' E 023°31'0 0.0
2017-Jul-16 11:58N 58°58' E 023°31'0 0.0
2017-Jul-16 11:29N 58°58' E 023°31'0 0.0
2017-Jul-16 10:53N 58°58' E 023°31'0 0.0
2017-Jul-16 10:26N 58°58' E 023°31'0 0.0
2017-Jul-16 09:27N 58°58' E 023°31'0 0.0
2017-Jul-16 08:56N 58°58' E 023°31'0 0.0
2017-Jul-16 08:08N 58°58' E 023°31'0 0.0
2017-Jul-16 07:12N 58°58' E 023°31'0 0.0
2017-Jul-16 07:00N 58°58' E 023°31'0 0.0
2017-Jul-16 06:28N 58°58' E 023°31'0 0.0
2017-Jul-16 05:55N 58°58' E 023°31'0 0.0
2017-Jul-16 05:25N 58°58' E 023°31'0 0.0
2017-Jul-16 04:55N 58°58' E 023°31'0 0.0
2017-Jul-16 03:04N 58°58' E 023°31'0 0.0
2017-Jul-15 23:56N 58°58' E 023°31'0 0.0
2017-Jul-15 23:20N 58°58' E 023°31'0 0.0
2017-Jul-15 21:54N 58°58' E 023°31'0 0.0
2017-Jul-15 21:22N 58°58' E 023°31'0 0.0
2017-Jul-15 21:00N 58°58' E 023°31'0 0.0
2017-Jul-15 20:22N 58°58' E 023°31'0 0.0
2017-Jul-15 19:38N 58°58' E 023°31'0 0.0
2017-Jul-15 19:27N 58°58' E 023°31'0 0.0
2017-Jul-15 18:56N 58°58' E 023°31'0 0.0
2017-Jul-15 18:21N 58°58' E 023°31'0 0.0
2017-Jul-15 18:00N 58°58' E 023°31'0 0.0
2017-Jul-15 17:30N 58°58' E 023°31'0 0.0
2017-Jul-15 17:00N 58°58' E 023°31'0 0.0
2017-Jul-15 16:27N 58°58' E 023°31'0 0.0
2017-Jul-15 16:00N 58°58' E 023°31'0 0.0
2017-Jul-15 15:27N 58°58' E 023°31'0 0.0
2017-Jul-15 15:00N 58°58' E 023°31'0 0.0
2017-Jul-15 14:00N 58°58' E 023°31'0 0.0
2017-Jul-15 13:24N 58°58' E 023°31'0 0.0
2017-Jul-15 13:00N 58°58' E 023°31'0 0.0
2017-Jul-15 12:24N 58°58' E 023°31'0 0.0
2017-Jul-15 11:57N 58°58' E 023°31'0 0.0
2017-Jul-15 11:30N 58°58' E 023°31'0 0.0
2017-Jul-15 05:15N 58°58' E 023°31'0 0.0
2017-Jul-15 04:20N 58°58' E 023°31'0 0.0
2017-Jul-15 03:49N 58°58' E 023°31'0 0.0
2017-Jul-15 03:26N 58°58' E 023°31'0 0.0
2017-Jul-15 02:59N 58°58' E 023°31'0 0.0
2017-Jul-15 00:08N 58°58' E 023°31'0 0.0
2017-Jul-14 23:41N 58°58' E 023°31'0 0.0
2017-Jul-14 19:20N 58°58' E 023°31'0 0.0
2017-Jul-14 18:53N 58°58' E 023°31'0 0.0
2017-Jul-14 18:30N 58°58' E 023°31'0 0.0
2017-Jul-14 18:00N 58°58' E 023°31'0 0.0
2017-Jul-14 17:30N 58°58' E 023°31'0 0.0
2017-Jul-14 16:57N 58°58' E 023°31'0 0.0
2017-Jul-14 16:30N 58°58' E 023°31'0 0.0
2017-Jul-14 15:58N 58°58' E 023°31'8 0.3
2017-Jul-13 09:39N 59°05' E 023°24'1 3.0
2017-Jul-13 09:22N 59°06' E 023°25'1 1.5
2017-Jul-13 09:00N 59°07' E 023°25'0 0.3
2017-Jul-13 08:30N 59°07' E 023°25'0 0.6
2017-Jul-13 08:00N 59°06' E 023°25'0 0.6
2017-Jul-13 07:26N 59°06' E 023°25'1 2.0
2017-Jul-13 07:01N 59°05' E 023°24'2 3.8
2017-Jul-13 06:29N 59°07' E 023°25'3 4.9
2017-Jul-13 05:49N 59°04' E 023°24'7 3.1
2017-Jul-13 03:26N 58°58' E 023°31'0 0.0
2017-Jul-12 09:57N 58°58' E 023°31'0 0.0
2017-Jul-12 09:12N 58°58' E 023°31'0 0.0
2017-Jul-12 08:55N 58°58' E 023°31'3 6.1
2017-Jul-12 08:31N 58°58' E 023°26'4 7.6
2017-Jul-12 08:00N 59°02' E 023°24'0 0.2
2017-Jul-12 07:29N 59°02' E 023°24'0 0.8
2017-Jul-12 07:01N 59°02' E 023°24'0 0.2
2017-Jul-12 06:19N 59°02' E 023°24'2 7.8
2017-Jul-12 06:00N 59°05' E 023°24'2 0.1
2017-Jul-11 11:10N 59°07' E 023°24'0 1.6
2017-Jul-11 10:54N 59°06' E 023°24'1 0.8
2017-Jul-11 09:29N 59°07' E 023°25'0 0.3
2017-Jul-11 08:59N 59°07' E 023°24'0 0.8
2017-Jul-11 08:30N 59°07' E 023°24'0 0.1
2017-Jul-11 08:00N 59°07' E 023°24'1 2.6
2017-Jul-11 07:30N 59°05' E 023°23'1 2.5
2017-Jul-11 07:00N 59°07' E 023°24'3 5.9
2017-Jul-11 06:30N 59°04' E 023°24'  

Dump ship's entire track history